createdAt,value
2022-08-07T00:00:24.719Z,2.03
2022-08-07T00:02:51.223Z,2.30
2022-08-07T00:05:20.600Z,2.10
2022-08-07T00:07:47.167Z,2.30
2022-08-07T00:10:26.274Z,2.00
2022-08-07T00:13:00.572Z,1.80
2022-08-07T00:15:38.002Z,1.90
2022-08-07T00:18:19.918Z,1.85
2022-08-07T00:20:51.312Z,1.95
2022-08-07T00:23:18.209Z,2.00
2022-08-07T00:25:58.974Z,2.08
2022-08-07T00:28:33.646Z,1.80
2022-08-07T00:31:05.869Z,2.85
2022-08-07T00:33:33.483Z,1.70
2022-08-07T00:36:00.254Z,1.92
2022-08-07T00:38:31.183Z,1.70
2022-08-07T00:40:58.110Z,1.80
2022-08-07T00:46:10.919Z,1.73
2022-08-07T00:48:37.450Z,2.00
2022-08-07T00:51:09.604Z,1.55
2022-08-07T00:53:39.111Z,1.98
2022-08-07T00:56:17.821Z,1.63
2022-08-07T00:58:47.056Z,1.80
2022-08-07T01:01:16.763Z,1.77
2022-08-07T01:03:56.981Z,1.70
2022-08-07T01:06:30.270Z,1.75
2022-08-07T01:08:58.539Z,1.75
2022-08-07T01:12:10.025Z,1.80
2022-08-07T01:14:16.557Z,1.90
2022-08-07T01:16:47.244Z,1.90
2022-08-07T01:19:18.852Z,2.05
2022-08-07T01:21:53.216Z,1.95
2022-08-07T01:24:22.302Z,2.08
2022-08-07T01:26:51.757Z,1.90
2022-08-07T01:29:21.950Z,1.80
2022-08-07T01:31:51.388Z,1.88
2022-08-07T01:34:18.908Z,1.83
2022-08-07T01:36:52.953Z,2.33
2022-08-07T01:39:39.653Z,1.83
2022-08-07T01:42:38.949Z,2.00
2022-08-07T01:45:00.262Z,2.08
2022-08-07T01:48:19.710Z,1.95
2022-08-07T01:50:14.443Z,1.83
2022-08-07T01:52:49.702Z,2.20
2022-08-07T01:55:24.216Z,1.70
2022-08-07T01:58:01.184Z,2.40
2022-08-07T02:00:35.604Z,1.90
2022-08-07T02:03:21.233Z,2.17
2022-08-07T02:06:02.515Z,2.75
2022-08-07T02:08:54.544Z,2.15
2022-08-07T02:12:01.442Z,1.92
2022-08-07T02:14:35.428Z,1.77
2022-08-07T02:16:59.468Z,2.58
2022-08-07T02:20:05.006Z,2.20
2022-08-07T02:22:13.101Z,2.22
2022-08-07T02:24:45.637Z,2.30
2022-08-07T02:27:16.847Z,2.42
2022-08-07T02:29:54.294Z,2.00
2022-08-07T02:32:29.914Z,2.15
2022-08-07T02:34:57.967Z,2.40
2022-08-07T02:37:27.492Z,2.50
2022-08-07T02:40:29.769Z,2.50
2022-08-07T02:42:51.130Z,2.35
2022-08-07T02:45:57.606Z,2.40
2022-08-07T02:48:10.016Z,2.30
2022-08-07T02:50:42.345Z,2.60
2022-08-07T02:53:13.316Z,2.42
2022-08-07T02:56:03.198Z,2.72
2022-08-07T02:58:33.329Z,2.50
2022-08-07T03:01:02.171Z,2.45
2022-08-07T03:03:49.227Z,2.25
2022-08-07T03:06:25.877Z,2.50
2022-08-07T03:09:04.803Z,2.33
2022-08-07T03:11:38.408Z,2.63
2022-08-07T03:14:07.701Z,2.63
2022-08-07T03:16:34.907Z,2.80
2022-08-07T03:19:02.485Z,2.35
2022-08-07T03:21:33.142Z,2.60
2022-08-07T03:24:18.349Z,2.58
2022-08-07T03:26:53.555Z,2.50
2022-08-07T03:29:27.593Z,2.38
2022-08-07T03:31:55.262Z,2.63
2022-08-07T03:34:22.920Z,2.58
2022-08-07T03:36:58.124Z,2.60
2022-08-07T03:40:00.140Z,2.90
2022-08-07T03:42:12.680Z,2.90
2022-08-07T03:44:40.131Z,2.70
2022-08-07T03:47:13.679Z,3.08
2022-08-07T03:49:53.330Z,2.90
2022-08-07T03:52:26.623Z,2.95
2022-08-07T03:55:07.423Z,2.72
2022-08-07T03:59:06.835Z,2.75
2022-08-07T04:00:29.122Z,3.08
2022-08-07T04:02:57.938Z,3.08
2022-08-07T04:05:40.292Z,3.25
2022-08-07T04:08:11.973Z,3.33
2022-08-07T04:10:40.173Z,3.15
2022-08-07T04:13:15.196Z,3.53
2022-08-07T04:15:43.445Z,3.40
2022-08-07T04:18:58.220Z,3.42
2022-08-07T04:21:00.786Z,3.38
2022-08-07T04:23:43.348Z,3.42
2022-08-07T04:26:14.486Z,3.25
2022-08-07T04:28:44.237Z,3.60
2022-08-07T04:31:20.093Z,3.63
2022-08-07T04:33:47.402Z,3.40
2022-08-07T04:36:22.688Z,2.88
2022-08-07T04:38:52.812Z,2.70
2022-08-07T04:41:19.604Z,2.90
2022-08-07T04:44:14.463Z,2.50
2022-08-07T04:47:04.041Z,2.55
2022-08-07T04:50:03.476Z,2.88
2022-08-07T04:52:50.991Z,2.95
2022-08-07T04:58:12.789Z,2.88
2022-08-07T04:58:47.296Z,2.47
2022-08-07T05:01:19.471Z,3.10
2022-08-07T05:04:06.724Z,2.95
2022-08-07T05:06:57.508Z,3.22
2022-08-07T05:09:46.665Z,2.85
2022-08-07T05:12:27.181Z,2.63
2022-08-07T05:15:04.069Z,3.03
2022-08-07T05:17:52.068Z,2.60
2022-08-07T05:20:25.720Z,2.40
2022-08-07T05:22:57.021Z,2.38
2022-08-07T05:25:36.650Z,2.60
2022-08-07T05:28:20.612Z,2.50
2022-08-07T05:30:52.235Z,2.40
2022-08-07T05:33:19.773Z,2.65
2022-08-07T05:35:48.747Z,2.70
2022-08-07T05:38:58.029Z,2.72
2022-08-07T05:41:05.515Z,3.00
2022-08-07T05:43:49.519Z,3.08
2022-08-07T05:46:29.467Z,3.67
2022-08-07T05:48:59.127Z,3.97
2022-08-07T05:51:31.431Z,4.03
2022-08-07T05:54:13.413Z,4.63
2022-08-07T05:56:47.826Z,4.85
2022-08-07T05:59:21.908Z,4.40
2022-08-07T06:01:55.754Z,4.53
2022-08-07T06:04:26.319Z,4.85
2022-08-07T06:07:03.504Z,4.97
2022-08-07T06:09:56.639Z,4.72
2022-08-07T06:12:27.835Z,4.90
2022-08-07T06:15:05.667Z,4.65
2022-08-07T06:17:37.394Z,4.15
2022-08-07T06:20:05.996Z,4.50
2022-08-07T06:22:40.624Z,4.90
2022-08-07T06:25:22.783Z,4.07
2022-08-07T06:28:01.157Z,4.85
2022-08-07T06:30:36.195Z,4.88
2022-08-07T06:33:15.958Z,5.28
2022-08-07T06:35:47.964Z,4.57
2022-08-07T06:38:30.344Z,5.10
2022-08-07T06:40:59.048Z,5.30
2022-08-07T06:43:28.375Z,5.57
2022-08-07T06:46:12.629Z,5.30
2022-08-07T06:48:42.100Z,5.65
2022-08-07T06:51:30.965Z,5.53
2022-08-07T06:55:29.986Z,6.03
2022-08-07T06:56:53.976Z,6.20
2022-08-07T07:00:12.871Z,6.07
2022-08-07T07:02:48.656Z,5.82
2022-08-07T07:05:07.090Z,5.95
2022-08-07T07:07:58.999Z,5.90
2022-08-07T07:10:29.572Z,5.50
2022-08-07T07:13:02.485Z,5.60
2022-08-07T07:15:32.443Z,5.05
2022-08-07T07:18:19.154Z,5.28
2022-08-07T07:21:13.562Z,5.15
2022-08-07T07:24:09.211Z,4.70
2022-08-07T07:26:37.160Z,4.50
2022-08-07T07:29:56.397Z,4.00
2022-08-07T07:31:56.016Z,4.20
2022-08-07T07:34:30.863Z,4.25
2022-08-07T07:37:14.419Z,4.40
2022-08-07T07:39:54.614Z,4.10
2022-08-07T07:42:32.930Z,3.63
2022-08-07T07:45:01.467Z,3.53
2022-08-07T07:47:28.006Z,3.70
2022-08-07T07:50:34.299Z,3.15
2022-08-07T07:52:43.665Z,2.67
2022-08-07T07:55:14.337Z,2.85
2022-08-07T07:57:50.554Z,2.92
2022-08-07T08:00:29.201Z,2.97
2022-08-07T08:03:01.291Z,2.58
2022-08-07T08:05:50.977Z,2.50
2022-08-07T08:08:34.704Z,2.35
2022-08-07T08:11:08.084Z,2.13
2022-08-07T08:13:36.646Z,2.08
2022-08-07T08:18:36.876Z,2.40
2022-08-07T08:20:16.267Z,2.50
2022-08-07T08:22:15.990Z,2.40
2022-08-07T08:25:11.467Z,2.65
2022-08-07T08:27:56.380Z,2.17
2022-08-07T08:30:29.006Z,2.60
2022-08-07T08:32:58.466Z,2.35
2022-08-07T08:35:28.700Z,2.47
2022-08-07T08:37:59.254Z,2.75
2022-08-07T08:40:32.327Z,2.60
2022-08-07T08:43:04.777Z,2.80
2022-08-07T08:45:58.324Z,2.67
2022-08-07T08:48:39.927Z,2.92
2022-08-07T08:51:22.456Z,2.88
2022-08-07T08:54:30.743Z,2.30
2022-08-07T08:57:02.296Z,2.60
2022-08-07T08:59:41.727Z,2.30
2022-08-07T09:02:34.729Z,2.35
2022-08-07T09:05:03.760Z,2.20
2022-08-07T09:07:46.189Z,2.40
2022-08-07T09:10:21.592Z,2.10
2022-08-07T09:12:53.269Z,2.38
2022-08-07T09:16:23.194Z,2.50
2022-08-07T09:18:41.403Z,2.30
2022-08-07T09:21:33.751Z,2.33
2022-08-07T09:24:31.055Z,2.10
2022-08-07T09:27:27.358Z,2.28
2022-08-07T09:30:08.670Z,2.10
2022-08-07T09:32:49.787Z,2.10
2022-08-07T09:36:05.245Z,2.55
2022-08-07T09:38:31.064Z,2.28
2022-08-07T09:41:15.446Z,2.17
2022-08-07T09:44:19.982Z,2.30
2022-08-07T09:47:50.386Z,2.28
2022-08-07T09:50:22.701Z,2.10
2022-08-07T09:53:00.821Z,2.10
2022-08-07T09:56:03.193Z,2.00
2022-08-07T09:58:48.838Z,2.10
2022-08-07T10:01:53.731Z,2.08
2022-08-07T10:04:45.826Z,2.20
2022-08-07T10:07:31.694Z,2.20
2022-08-07T10:10:22.797Z,1.90
2022-08-07T10:13:10.945Z,2.00
2022-08-07T10:16:01.685Z,2.08
2022-08-07T10:18:50.391Z,1.70
2022-08-07T10:22:12.633Z,2.08
2022-08-07T10:24:29.486Z,2.17
2022-08-07T10:27:20.360Z,2.25
2022-08-07T10:30:12.103Z,2.00
2022-08-07T10:32:59.497Z,2.20
2022-08-07T10:35:27.256Z,1.90
2022-08-07T10:38:35.914Z,1.90
2022-08-07T10:41:46.896Z,1.88
2022-08-07T10:47:01.934Z,1.70
2022-08-07T10:49:49.721Z,1.70
2022-08-07T10:52:31.877Z,1.70
2022-08-07T10:55:26.603Z,1.85
2022-08-07T10:58:00.443Z,1.92
2022-08-07T11:00:36.241Z,1.70
2022-08-07T11:03:10.981Z,1.80
2022-08-07T11:05:52.356Z,1.75
2022-08-07T11:08:56.600Z,1.65
2022-08-07T11:11:29.616Z,1.60
2022-08-07T11:14:44.698Z,1.70
2022-08-07T11:17:07.204Z,1.42
2022-08-07T11:19:45.061Z,1.65
2022-08-07T11:22:26.573Z,1.70
2022-08-07T11:25:06.483Z,1.50
2022-08-07T11:28:02.855Z,1.60
2022-08-07T11:30:52.391Z,1.50
2022-08-07T11:36:00.305Z,1.63
2022-08-07T11:38:30.561Z,1.40
2022-08-07T11:41:18.223Z,1.60
2022-08-07T11:44:12.769Z,1.67
2022-08-07T11:47:03.847Z,1.20
2022-08-07T11:50:32.990Z,1.45
2022-08-07T11:53:15.196Z,1.90
2022-08-07T11:56:15.604Z,1.52
2022-08-07T11:58:56.236Z,1.63
2022-08-07T12:01:59.591Z,1.80
2022-08-07T12:04:34.034Z,1.63
2022-08-07T12:07:13.994Z,1.70
2022-08-07T12:09:53.751Z,1.40
2022-08-07T12:12:28.717Z,1.60
2022-08-07T12:15:01.953Z,1.50
2022-08-07T12:17:59.011Z,1.55
2022-08-07T12:20:38.023Z,1.73
2022-08-07T12:24:05.479Z,1.60
2022-08-07T12:26:23.565Z,1.60
2022-08-07T12:31:52.503Z,1.50
2022-08-07T12:34:25.888Z,1.42
2022-08-07T12:36:53.812Z,2.33
2022-08-07T12:39:43.751Z,1.52
2022-08-07T12:42:08.881Z,1.65
2022-08-07T12:44:44.908Z,1.50
2022-08-07T12:47:21.871Z,1.58
2022-08-07T12:50:04.913Z,1.50
2022-08-07T12:52:57.278Z,1.50
2022-08-07T12:55:41.408Z,1.50
2022-08-07T12:58:19.901Z,1.50
2022-08-07T13:00:56.673Z,1.40
2022-08-07T13:03:54.694Z,1.80
2022-08-07T13:06:27.883Z,1.60
2022-08-07T13:10:19.924Z,1.52
2022-08-07T13:12:09.931Z,1.80
2022-08-07T13:14:56.759Z,1.80
2022-08-07T13:17:40.056Z,1.83
2022-08-07T13:20:10.923Z,1.83
2022-08-07T13:22:58.210Z,1.73
2022-08-07T13:25:54.172Z,1.83
2022-08-07T13:28:46.444Z,1.67
2022-08-07T13:31:20.956Z,1.55
2022-08-07T13:34:34.251Z,1.70
2022-08-07T13:36:48.977Z,1.67
2022-08-07T13:40:33.419Z,1.80
2022-08-07T13:42:24.905Z,1.60
2022-08-07T13:45:20.942Z,2.10
2022-08-07T13:48:06.132Z,1.90
2022-08-07T13:50:35.064Z,2.10
2022-08-07T13:53:21.704Z,1.67
2022-08-07T13:55:54.721Z,2.20
2022-08-07T14:01:27.245Z,2.20
2022-08-07T14:04:05.318Z,2.00
2022-08-07T14:06:35.331Z,2.20
2022-08-07T14:09:04.559Z,1.83
2022-08-07T14:12:00.437Z,1.83
2022-08-07T14:16:54.517Z,1.98
2022-08-07T14:20:40.693Z,2.13
2022-08-07T14:22:34.792Z,2.03
2022-08-07T14:25:09.178Z,1.88
2022-08-07T14:28:12.468Z,2.33
2022-08-07T14:30:33.136Z,2.20
2022-08-07T14:33:01.707Z,2.35
2022-08-07T14:35:45.158Z,2.22
2022-08-07T14:38:26.134Z,2.05
2022-08-07T14:40:59.105Z,2.38
2022-08-07T14:46:18.612Z,6.80
2022-08-07T14:48:58.457Z,2.90
2022-08-07T14:52:05.048Z,2.97
2022-08-07T14:54:31.067Z,5.45
2022-08-07T14:57:02.244Z,2.65
2022-08-07T15:00:05.541Z,2.05
2022-08-07T15:05:20.373Z,1.70
2022-08-07T15:07:51.858Z,1.55
2022-08-07T15:13:23.326Z,1.40
2022-08-07T15:15:56.372Z,1.60
2022-08-07T15:18:34.824Z,3.10
2022-08-07T15:21:26.587Z,2.10
2022-08-07T15:25:13.621Z,1.95
2022-08-07T15:26:47.785Z,1.75
2022-08-07T15:30:04.544Z,1.65
2022-08-07T15:32:04.867Z,1.45
2022-08-07T15:34:36.205Z,1.70
2022-08-07T15:37:06.872Z,1.75
2022-08-07T15:39:56.840Z,1.80
2022-08-07T15:42:47.825Z,2.00
2022-08-07T15:45:20.830Z,1.95
2022-08-07T15:48:00.807Z,1.80
2022-08-07T15:50:37.953Z,1.70
2022-08-07T15:53:52.935Z,1.58
2022-08-07T15:56:24.115Z,1.70
2022-08-07T15:58:53.388Z,1.92
2022-08-07T16:01:23.967Z,2.05
2022-08-07T16:04:14.836Z,3.10
2022-08-07T16:06:50.824Z,2.22
2022-08-07T16:11:49.261Z,2.97
2022-08-07T16:14:19.160Z,2.10
2022-08-07T16:16:57.154Z,2.92
2022-08-07T16:19:41.975Z,2.40
2022-08-07T16:22:36.438Z,2.38
2022-08-07T16:25:54.449Z,2.70
2022-08-07T16:30:08.533Z,1.80
2022-08-07T16:31:51.216Z,2.08
2022-08-07T16:34:27.877Z,2.33
2022-08-07T16:38:05.759Z,2.30
2022-08-07T16:40:12.860Z,2.25
2022-08-07T16:43:16.287Z,2.20
2022-08-07T16:46:47.379Z,1.92
2022-08-07T16:48:53.722Z,2.17
2022-08-07T16:51:57.611Z,1.92
2022-08-07T16:54:33.030Z,2.00
2022-08-07T16:57:28.797Z,2.08
2022-08-07T17:00:12.026Z,2.17
2022-08-07T17:03:05.966Z,1.95
2022-08-07T17:06:01.710Z,2.10
2022-08-07T17:09:08.764Z,1.92
2022-08-07T17:12:02.045Z,1.92
2022-08-07T17:14:37.800Z,2.20
2022-08-07T17:17:08.360Z,2.30
2022-08-07T17:20:02.990Z,2.30
2022-08-07T17:22:38.231Z,2.20
2022-08-07T17:25:45.691Z,2.30
2022-08-07T17:28:19.442Z,2.40
2022-08-07T17:30:58.320Z,2.13
2022-08-07T17:34:08.496Z,2.20
2022-08-07T17:36:28.423Z,2.20
2022-08-07T17:39:15.416Z,2.50
2022-08-07T17:42:04.786Z,2.40
2022-08-07T17:44:50.157Z,2.13
2022-08-07T17:47:42.043Z,2.25
2022-08-07T17:50:16.616Z,2.10
2022-08-07T17:53:52.588Z,2.58
2022-08-07T17:56:28.721Z,2.05
2022-08-07T17:59:02.441Z,2.47
2022-08-07T18:01:39.129Z,2.20
2022-08-07T18:04:22.636Z,2.60
2022-08-07T18:10:04.459Z,2.40
2022-08-07T18:12:28.591Z,2.70
2022-08-07T18:15:01.911Z,2.80
2022-08-07T18:18:47.642Z,2.50
2022-08-07T18:21:08.598Z,2.50
2022-08-07T18:23:56.167Z,2.22
2022-08-07T18:26:32.159Z,2.42
2022-08-07T18:29:04.236Z,2.40
2022-08-07T18:31:38.871Z,2.30
2022-08-07T18:34:36.992Z,2.70
2022-08-07T18:37:09.425Z,2.35
2022-08-07T18:40:08.173Z,2.20
2022-08-07T18:42:34.953Z,2.45
2022-08-07T18:45:43.995Z,2.38
2022-08-07T18:48:05.460Z,2.60
2022-08-07T18:50:40.803Z,2.60
2022-08-07T18:53:36.667Z,2.53
2022-08-07T18:56:06.196Z,2.70
2022-08-07T18:58:51.809Z,2.55
2022-08-07T19:02:18.091Z,2.30
2022-08-07T19:04:37.436Z,2.28
2022-08-07T19:07:35.058Z,2.60
2022-08-07T19:10:06.309Z,2.60
2022-08-07T19:12:48.698Z,2.42
2022-08-07T19:16:04.666Z,2.63
2022-08-07T19:18:34.678Z,2.70
2022-08-07T19:21:09.060Z,2.90
2022-08-07T19:23:59.052Z,2.90
2022-08-07T19:27:01.706Z,2.90
2022-08-07T19:32:18.789Z,2.90
2022-08-07T19:35:01.235Z,2.83
2022-08-07T19:37:55.664Z,2.97
2022-08-07T19:40:31.182Z,2.78
2022-08-07T19:43:00.274Z,2.95
2022-08-07T19:46:04.977Z,2.65
2022-08-07T19:48:24.304Z,3.13
2022-08-07T19:50:59.684Z,3.10
2022-08-07T19:54:33.483Z,3.20
2022-08-07T19:57:52.282Z,3.13
2022-08-07T19:59:04.736Z,3.00
2022-08-07T20:01:55.879Z,3.47
2022-08-07T20:04:31.303Z,3.22
2022-08-07T20:07:05.406Z,3.22
2022-08-07T20:10:35.306Z,3.72
2022-08-07T20:12:34.902Z,3.38
2022-08-07T20:15:03.705Z,3.30
2022-08-07T20:17:31.500Z,3.30
2022-08-07T20:20:04.439Z,3.28
2022-08-07T20:22:35.897Z,3.17
2022-08-07T20:25:06.163Z,2.90
2022-08-07T20:27:47.669Z,2.95
2022-08-07T20:30:22.535Z,3.35
2022-08-07T20:32:50.258Z,3.60
2022-08-07T20:35:25.270Z,3.70
2022-08-07T20:37:58.819Z,3.50
2022-08-07T20:40:31.183Z,3.53
2022-08-07T20:43:00.928Z,4.03
2022-08-07T20:45:33.185Z,4.07
2022-08-07T20:48:25.901Z,4.45
2022-08-07T20:51:00.124Z,5.22
2022-08-07T20:54:04.172Z,4.70
2022-08-07T20:56:25.719Z,4.50
2022-08-07T20:58:53.477Z,4.47
2022-08-07T21:01:22.142Z,4.32
2022-08-07T21:04:19.464Z,4.00
2022-08-07T21:06:39.384Z,4.20
2022-08-07T21:09:15.159Z,4.15
2022-08-07T21:11:49.943Z,4.18
2022-08-07T21:18:00.613Z,3.80
2022-08-07T21:19:51.509Z,3.40
2022-08-07T21:22:35.252Z,3.72
2022-08-07T21:25:11.987Z,4.00
2022-08-07T21:28:02.041Z,3.80
2022-08-07T21:30:43.075Z,4.10
2022-08-07T21:33:14.413Z,4.53
2022-08-07T21:36:04.998Z,4.70
2022-08-07T21:38:49.786Z,4.50
2022-08-07T21:41:16.479Z,4.35
2022-08-07T21:43:56.740Z,4.60
2022-08-07T21:46:40.904Z,4.18
2022-08-07T21:49:29.867Z,4.30
2022-08-07T21:52:11.554Z,4.88
2022-08-07T21:54:50.695Z,4.70
2022-08-07T21:57:31.564Z,4.53
2022-08-07T22:00:23.033Z,4.50
2022-08-07T22:03:06.282Z,3.85
2022-08-07T22:05:46.064Z,4.20
2022-08-07T22:08:18.664Z,4.32
2022-08-07T22:10:49.709Z,4.45
2022-08-07T22:13:16.742Z,4.28
2022-08-07T22:16:38.870Z,4.45
2022-08-07T22:18:54.937Z,4.75
2022-08-07T22:21:23.995Z,4.50
2022-08-07T22:24:19.698Z,5.15
2022-08-07T22:26:51.248Z,4.90
2022-08-07T22:29:38.010Z,5.20
2022-08-07T22:32:11.361Z,4.93
2022-08-07T22:34:53.048Z,5.28
2022-08-07T22:38:03.337Z,5.20
2022-08-07T22:40:31.941Z,4.90
2022-08-07T22:43:08.855Z,5.15
2022-08-07T22:46:40.881Z,5.20
2022-08-07T22:48:56.117Z,4.93
2022-08-07T22:51:43.258Z,5.25
2022-08-07T22:54:16.195Z,4.75
2022-08-07T22:57:02.923Z,4.85
2022-08-07T22:59:35.112Z,5.10
2022-08-07T23:02:01.461Z,5.20
2022-08-07T23:04:56.785Z,5.35
2022-08-07T23:07:42.391Z,5.10
2022-08-07T23:10:37.304Z,4.72
2022-08-07T23:16:05.824Z,4.80
2022-08-07T23:19:13.673Z,4.95
2022-08-07T23:21:43.939Z,4.93
2022-08-07T23:24:17.046Z,5.55
2022-08-07T23:26:56.270Z,5.32
2022-08-07T23:30:35.803Z,5.60
2022-08-07T23:35:10.896Z,4.90
2022-08-07T23:38:01.256Z,5.68
2022-08-07T23:40:39.809Z,5.45
2022-08-07T23:43:16.437Z,4.95
2022-08-07T23:46:03.164Z,5.07
2022-08-07T23:48:40.727Z,5.30
2022-08-07T23:53:06.514Z,5.30
2022-08-07T23:54:19.849Z,4.80
2022-08-07T23:57:09.125Z,5.18
